sensor_id;sensor_type;location;lat;lon;timestamp;P1;durP1;ratioP1;P2;durP2;ratioP2
76475;SDS011;65308;50.078;14.854;2023-03-25T00:02:18;4.60;;;2.42;;
76475;SDS011;65308;50.078;14.854;2023-03-25T00:04:48;5.15;;;2.10;;
76475;SDS011;65308;50.078;14.854;2023-03-25T00:07:16;4.75;;;2.20;;
76475;SDS011;65308;50.078;14.854;2023-03-25T00:12:12;3.80;;;2.20;;
76475;SDS011;65308;50.078;14.854;2023-03-25T00:14:41;4.57;;;2.55;;
76475;SDS011;65308;50.078;14.854;2023-03-25T00:17:07;4.35;;;2.38;;
76475;SDS011;65308;50.078;14.854;2023-03-25T00:19:35;4.03;;;2.20;;
76475;SDS011;65308;50.078;14.854;2023-03-25T00:22:02;4.10;;;2.28;;
76475;SDS011;65308;50.078;14.854;2023-03-25T00:24:29;4.65;;;2.40;;
76475;SDS011;65308;50.078;14.854;2023-03-25T00:26:56;6.70;;;2.58;;
76475;SDS011;65308;50.078;14.854;2023-03-25T00:29:23;5.07;;;2.30;;
76475;SDS011;65308;50.078;14.854;2023-03-25T00:31:50;4.13;;;2.17;;
76475;SDS011;65308;50.078;14.854;2023-03-25T00:34:18;4.50;;;2.45;;
76475;SDS011;65308;50.078;14.854;2023-03-25T00:36:44;3.83;;;2.20;;
76475;SDS011;65308;50.078;14.854;2023-03-25T00:39:11;4.20;;;2.05;;
76475;SDS011;65308;50.078;14.854;2023-03-25T00:41:38;4.97;;;2.40;;
76475;SDS011;65308;50.078;14.854;2023-03-25T00:44:06;4.93;;;2.30;;
76475;SDS011;65308;50.078;14.854;2023-03-25T00:46:34;4.30;;;2.35;;
76475;SDS011;65308;50.078;14.854;2023-03-25T00:49:01;3.78;;;2.10;;
76475;SDS011;65308;50.078;14.854;2023-03-25T00:51:28;3.63;;;1.92;;
76475;SDS011;65308;50.078;14.854;2023-03-25T00:53:58;3.90;;;2.10;;
76475;SDS011;65308;50.078;14.854;2023-03-25T00:56:25;5.72;;;2.40;;
76475;SDS011;65308;50.078;14.854;2023-03-25T00:58:52;4.53;;;2.30;;
76475;SDS011;65308;50.078;14.854;2023-03-25T01:01:21;4.15;;;2.00;;
76475;SDS011;65308;50.078;14.854;2023-03-25T01:03:52;4.38;;;2.30;;
76475;SDS011;65308;50.078;14.854;2023-03-25T01:06:22;3.60;;;2.13;;
76475;SDS011;65308;50.078;14.854;2023-03-25T01:08:52;5.28;;;2.00;;
76475;SDS011;65308;50.078;14.854;2023-03-25T01:11:21;4.15;;;2.10;;
76475;SDS011;65308;50.078;14.854;2023-03-25T01:13:49;3.60;;;2.00;;
76475;SDS011;65308;50.078;14.854;2023-03-25T01:16:16;5.28;;;2.00;;
76475;SDS011;65308;50.078;14.854;2023-03-25T01:18:42;5.25;;;2.20;;
76475;SDS011;65308;50.078;14.854;2023-03-25T01:21:10;4.32;;;1.92;;
76475;SDS011;65308;50.078;14.854;2023-03-25T01:23:37;4.50;;;1.92;;
76475;SDS011;65308;50.078;14.854;2023-03-25T01:26:04;4.60;;;2.00;;
76475;SDS011;65308;50.078;14.854;2023-03-25T01:28:31;4.75;;;2.08;;
76475;SDS011;65308;50.078;14.854;2023-03-25T01:31:01;6.10;;;2.10;;
76475;SDS011;65308;50.078;14.854;2023-03-25T01:33:28;4.03;;;1.90;;
76475;SDS011;65308;50.078;14.854;2023-03-25T01:35:56;4.35;;;2.17;;
76475;SDS011;65308;50.078;14.854;2023-03-25T01:38:25;3.95;;;1.95;;
76475;SDS011;65308;50.078;14.854;2023-03-25T01:40:52;5.18;;;1.85;;
76475;SDS011;65308;50.078;14.854;2023-03-25T01:43:19;3.97;;;1.88;;
76475;SDS011;65308;50.078;14.854;2023-03-25T01:45:46;4.80;;;2.15;;
76475;SDS011;65308;50.078;14.854;2023-03-25T01:48:14;4.00;;;1.98;;
76475;SDS011;65308;50.078;14.854;2023-03-25T01:50:45;5.07;;;2.00;;
76475;SDS011;65308;50.078;14.854;2023-03-25T01:53:22;4.85;;;2.40;;
76475;SDS011;65308;50.078;14.854;2023-03-25T01:55:52;4.80;;;2.00;;
76475;SDS011;65308;50.078;14.854;2023-03-25T01:58:20;4.63;;;2.10;;
76475;SDS011;65308;50.078;14.854;2023-03-25T02:00:51;5.30;;;2.20;;
76475;SDS011;65308;50.078;14.854;2023-03-25T02:03:19;4.07;;;2.20;;
76475;SDS011;65308;50.078;14.854;2023-03-25T02:05:50;4.95;;;2.20;;
76475;SDS011;65308;50.078;14.854;2023-03-25T02:08:20;4.25;;;1.95;;
76475;SDS011;65308;50.078;14.854;2023-03-25T02:10:49;3.15;;;2.08;;
76475;SDS011;65308;50.078;14.854;2023-03-25T02:13:17;3.60;;;2.13;;
76475;SDS011;65308;50.078;14.854;2023-03-25T02:15:51;4.35;;;2.25;;
76475;SDS011;65308;50.078;14.854;2023-03-25T02:18:36;5.15;;;2.10;;
76475;SDS011;65308;50.078;14.854;2023-03-25T02:24:12;4.30;;;2.30;;
76475;SDS011;65308;50.078;14.854;2023-03-25T02:27:17;3.35;;;1.90;;
76475;SDS011;65308;50.078;14.854;2023-03-25T02:33:15;5.35;;;2.15;;
76475;SDS011;65308;50.078;14.854;2023-03-25T02:39:00;5.32;;;2.33;;
76475;SDS011;65308;50.078;14.854;2023-03-25T02:41:32;4.00;;;2.22;;
76475;SDS011;65308;50.078;14.854;2023-03-25T02:44:06;3.80;;;2.30;;
76475;SDS011;65308;50.078;14.854;2023-03-25T02:46:39;3.60;;;2.25;;
76475;SDS011;65308;50.078;14.854;2023-03-25T02:49:12;4.93;;;2.28;;
76475;SDS011;65308;50.078;14.854;2023-03-25T02:51:43;4.22;;;2.40;;
76475;SDS011;65308;50.078;14.854;2023-03-25T02:54:15;4.00;;;2.13;;
76475;SDS011;65308;50.078;14.854;2023-03-25T02:56:44;3.67;;;2.10;;
76475;SDS011;65308;50.078;14.854;2023-03-25T02:59:14;4.10;;;2.25;;
76475;SDS011;65308;50.078;14.854;2023-03-25T03:01:41;4.45;;;2.45;;
76475;SDS011;65308;50.078;14.854;2023-03-25T03:04:09;3.40;;;2.13;;
76475;SDS011;65308;50.078;14.854;2023-03-25T03:06:38;5.15;;;2.50;;
76475;SDS011;65308;50.078;14.854;2023-03-25T03:09:18;5.00;;;2.70;;
76475;SDS011;65308;50.078;14.854;2023-03-25T03:11:51;5.90;;;3.15;;
76475;SDS011;65308;50.078;14.854;2023-03-25T03:17:11;5.13;;;2.63;;
76475;SDS011;65308;50.078;14.854;2023-03-25T03:19:45;4.65;;;2.38;;
76475;SDS011;65308;50.078;14.854;2023-03-25T03:22:22;4.90;;;2.60;;
76475;SDS011;65308;50.078;14.854;2023-03-25T03:25:03;4.00;;;2.13;;
76475;SDS011;65308;50.078;14.854;2023-03-25T03:27:35;4.53;;;2.92;;
76475;SDS011;65308;50.078;14.854;2023-03-25T03:30:08;4.25;;;2.50;;
76475;SDS011;65308;50.078;14.854;2023-03-25T03:32:39;5.22;;;2.05;;
76475;SDS011;65308;50.078;14.854;2023-03-25T03:35:11;4.88;;;2.20;;
76475;SDS011;65308;50.078;14.854;2023-03-25T03:37:41;4.38;;;2.45;;
76475;SDS011;65308;50.078;14.854;2023-03-25T03:40:13;4.43;;;2.50;;
76475;SDS011;65308;50.078;14.854;2023-03-25T03:42:43;3.13;;;2.10;;
76475;SDS011;65308;50.078;14.854;2023-03-25T03:45:15;4.93;;;2.30;;
76475;SDS011;65308;50.078;14.854;2023-03-25T03:47:45;3.78;;;2.10;;
76475;SDS011;65308;50.078;14.854;2023-03-25T03:50:15;4.20;;;2.15;;
76475;SDS011;65308;50.078;14.854;2023-03-25T03:52:45;3.65;;;1.80;;
76475;SDS011;65308;50.078;14.854;2023-03-25T03:55:18;3.80;;;1.85;;
76475;SDS011;65308;50.078;14.854;2023-03-25T03:57:50;2.40;;;1.50;;
76475;SDS011;65308;50.078;14.854;2023-03-25T04:00:21;4.30;;;1.88;;
76475;SDS011;65308;50.078;14.854;2023-03-25T04:02:52;3.20;;;1.60;;
76475;SDS011;65308;50.078;14.854;2023-03-25T04:05:22;3.92;;;1.65;;
76475;SDS011;65308;50.078;14.854;2023-03-25T04:07:55;3.10;;;1.77;;
76475;SDS011;65308;50.078;14.854;2023-03-25T04:10:26;2.75;;;1.58;;
76475;SDS011;65308;50.078;14.854;2023-03-25T04:12:59;3.10;;;1.60;;
76475;SDS011;65308;50.078;14.854;2023-03-25T04:15:29;3.22;;;1.50;;
76475;SDS011;65308;50.078;14.854;2023-03-25T04:17:56;2.67;;;1.48;;
76475;SDS011;65308;50.078;14.854;2023-03-25T04:20:23;4.82;;;1.70;;
76475;SDS011;65308;50.078;14.854;2023-03-25T04:22:53;4.47;;;1.90;;
76475;SDS011;65308;50.078;14.854;2023-03-25T04:25:20;2.88;;;1.60;;
76475;SDS011;65308;50.078;14.854;2023-03-25T04:27:50;2.50;;;1.63;;
76475;SDS011;65308;50.078;14.854;2023-03-25T04:32:50;2.65;;;1.65;;
76475;SDS011;65308;50.078;14.854;2023-03-25T04:35:18;2.55;;;1.40;;
76475;SDS011;65308;50.078;14.854;2023-03-25T04:37:45;3.80;;;1.70;;
76475;SDS011;65308;50.078;14.854;2023-03-25T04:42:56;2.10;;;1.27;;
76475;SDS011;65308;50.078;14.854;2023-03-25T04:45:22;2.25;;;1.40;;
76475;SDS011;65308;50.078;14.854;2023-03-25T04:47:52;3.88;;;1.55;;
76475;SDS011;65308;50.078;14.854;2023-03-25T04:50:20;2.65;;;1.20;;
76475;SDS011;65308;50.078;14.854;2023-03-25T04:52:48;2.85;;;1.40;;
76475;SDS011;65308;50.078;14.854;2023-03-25T04:55:15;2.53;;;1.35;;
76475;SDS011;65308;50.078;14.854;2023-03-25T04:57:43;2.90;;;1.40;;
76475;SDS011;65308;50.078;14.854;2023-03-25T05:00:13;3.10;;;1.50;;
76475;SDS011;65308;50.078;14.854;2023-03-25T05:02:41;3.53;;;1.67;;
76475;SDS011;65308;50.078;14.854;2023-03-25T05:05:10;2.63;;;1.55;;
76475;SDS011;65308;50.078;14.854;2023-03-25T05:07:42;3.03;;;1.40;;
76475;SDS011;65308;50.078;14.854;2023-03-25T05:12:36;4.07;;;1.75;;
76475;SDS011;65308;50.078;14.854;2023-03-25T05:15:04;3.75;;;1.80;;
76475;SDS011;65308;50.078;14.854;2023-03-25T05:17:38;4.95;;;1.83;;
76475;SDS011;65308;50.078;14.854;2023-03-25T05:20:27;3.40;;;1.88;;
76475;SDS011;65308;50.078;14.854;2023-03-25T05:22:59;3.72;;;1.77;;
76475;SDS011;65308;50.078;14.854;2023-03-25T05:25:26;4.07;;;2.33;;
76475;SDS011;65308;50.078;14.854;2023-03-25T05:27:58;5.20;;;2.10;;
76475;SDS011;65308;50.078;14.854;2023-03-25T05:30:26;4.13;;;2.17;;
76475;SDS011;65308;50.078;14.854;2023-03-25T05:32:57;4.00;;;2.13;;
76475;SDS011;65308;50.078;14.854;2023-03-25T05:35:25;5.03;;;2.20;;
76475;SDS011;65308;50.078;14.854;2023-03-25T05:37:57;5.18;;;2.35;;
76475;SDS011;65308;50.078;14.854;2023-03-25T05:40:24;4.38;;;2.53;;
76475;SDS011;65308;50.078;14.854;2023-03-25T05:42:51;3.70;;;2.25;;
76475;SDS011;65308;50.078;14.854;2023-03-25T05:45:19;4.38;;;2.20;;
76475;SDS011;65308;50.078;14.854;2023-03-25T05:47:46;5.05;;;2.30;;
76475;SDS011;65308;50.078;14.854;2023-03-25T05:50:14;5.78;;;2.10;;
76475;SDS011;65308;50.078;14.854;2023-03-25T05:52:41;4.13;;;2.40;;
76475;SDS011;65308;50.078;14.854;2023-03-25T05:55:09;3.40;;;1.70;;
76475;SDS011;65308;50.078;14.854;2023-03-25T05:57:39;6.30;;;2.10;;
76475;SDS011;65308;50.078;14.854;2023-03-25T06:00:06;6.30;;;1.73;;
76475;SDS011;65308;50.078;14.854;2023-03-25T06:02:36;3.67;;;1.77;;
76475;SDS011;65308;50.078;14.854;2023-03-25T06:05:03;3.53;;;1.80;;
76475;SDS011;65308;50.078;14.854;2023-03-25T06:07:31;4.93;;;1.80;;
76475;SDS011;65308;50.078;14.854;2023-03-25T06:09:58;3.67;;;2.10;;
76475;SDS011;65308;50.078;14.854;2023-03-25T06:12:25;3.33;;;2.03;;
76475;SDS011;65308;50.078;14.854;2023-03-25T06:14:53;4.32;;;2.00;;
76475;SDS011;65308;50.078;14.854;2023-03-25T06:17:21;6.28;;;2.15;;
76475;SDS011;65308;50.078;14.854;2023-03-25T06:19:48;4.57;;;2.00;;
76475;SDS011;65308;50.078;14.854;2023-03-25T06:22:17;3.78;;;1.95;;
76475;SDS011;65308;50.078;14.854;2023-03-25T06:24:47;4.90;;;1.88;;
76475;SDS011;65308;50.078;14.854;2023-03-25T06:27:15;3.22;;;1.70;;
76475;SDS011;65308;50.078;14.854;2023-03-25T06:29:43;3.00;;;1.60;;
76475;SDS011;65308;50.078;14.854;2023-03-25T06:32:11;3.35;;;1.60;;
76475;SDS011;65308;50.078;14.854;2023-03-25T06:34:39;3.17;;;1.80;;
76475;SDS011;65308;50.078;14.854;2023-03-25T06:37:07;2.78;;;1.60;;
76475;SDS011;65308;50.078;14.854;2023-03-25T06:39:35;3.30;;;1.75;;
76475;SDS011;65308;50.078;14.854;2023-03-25T06:44:31;3.13;;;1.60;;
76475;SDS011;65308;50.078;14.854;2023-03-25T06:46:58;3.45;;;1.67;;
76475;SDS011;65308;50.078;14.854;2023-03-25T06:49:29;4.43;;;1.40;;
76475;SDS011;65308;50.078;14.854;2023-03-25T06:51:56;3.05;;;1.70;;
76475;SDS011;65308;50.078;14.854;2023-03-25T06:54:23;3.67;;;1.63;;
76475;SDS011;65308;50.078;14.854;2023-03-25T06:56:50;2.90;;;1.50;;
76475;SDS011;65308;50.078;14.854;2023-03-25T06:59:20;2.97;;;1.48;;
76475;SDS011;65308;50.078;14.854;2023-03-25T07:01:46;2.97;;;1.55;;
76475;SDS011;65308;50.078;14.854;2023-03-25T07:04:13;3.33;;;1.40;;
76475;SDS011;65308;50.078;14.854;2023-03-25T07:06:40;3.75;;;1.58;;
76475;SDS011;65308;50.078;14.854;2023-03-25T07:09:06;4.95;;;1.60;;
76475;SDS011;65308;50.078;14.854;2023-03-25T07:11:33;4.07;;;1.60;;
76475;SDS011;65308;50.078;14.854;2023-03-25T07:14:00;3.03;;;1.50;;
76475;SDS011;65308;50.078;14.854;2023-03-25T07:16:28;3.60;;;1.67;;
76475;SDS011;65308;50.078;14.854;2023-03-25T07:18:55;3.72;;;1.63;;
76475;SDS011;65308;50.078;14.854;2023-03-25T07:21:23;3.47;;;1.73;;
76475;SDS011;65308;50.078;14.854;2023-03-25T07:23:50;4.65;;;1.65;;
76475;SDS011;65308;50.078;14.854;2023-03-25T07:28:44;3.90;;;1.85;;
76475;SDS011;65308;50.078;14.854;2023-03-25T07:31:12;3.92;;;1.85;;
76475;SDS011;65308;50.078;14.854;2023-03-25T07:33:43;4.38;;;1.90;;
76475;SDS011;65308;50.078;14.854;2023-03-25T07:36:10;4.22;;;1.80;;
76475;SDS011;65308;50.078;14.854;2023-03-25T07:38:39;4.30;;;1.63;;
76475;SDS011;65308;50.078;14.854;2023-03-25T07:41:06;3.53;;;1.80;;
76475;SDS011;65308;50.078;14.854;2023-03-25T07:43:34;4.25;;;1.88;;
76475;SDS011;65308;50.078;14.854;2023-03-25T07:46:01;2.72;;;1.70;;
76475;SDS011;65308;50.078;14.854;2023-03-25T07:48:28;3.47;;;1.70;;
76475;SDS011;65308;50.078;14.854;2023-03-25T07:50:56;7.45;;;2.05;;
76475;SDS011;65308;50.078;14.854;2023-03-25T07:53:23;4.20;;;1.90;;
76475;SDS011;65308;50.078;14.854;2023-03-25T07:55:49;4.95;;;2.22;;
76475;SDS011;65308;50.078;14.854;2023-03-25T07:58:16;3.80;;;1.83;;
76475;SDS011;65308;50.078;14.854;2023-03-25T08:00:43;4.75;;;1.48;;
76475;SDS011;65308;50.078;14.854;2023-03-25T08:03:10;2.92;;;1.60;;
76475;SDS011;65308;50.078;14.854;2023-03-25T08:08:09;2.80;;;1.40;;
76475;SDS011;65308;50.078;14.854;2023-03-25T08:10:36;4.15;;;1.42;;
76475;SDS011;65308;50.078;14.854;2023-03-25T08:13:03;4.70;;;1.73;;
76475;SDS011;65308;50.078;14.854;2023-03-25T08:15:30;3.38;;;1.48;;
76475;SDS011;65308;50.078;14.854;2023-03-25T08:17:57;2.38;;;1.25;;
76475;SDS011;65308;50.078;14.854;2023-03-25T08:20:25;2.35;;;1.20;;
76475;SDS011;65308;50.078;14.854;2023-03-25T08:22:52;4.10;;;1.40;;
76475;SDS011;65308;50.078;14.854;2023-03-25T08:25:22;1.77;;;1.10;;
76475;SDS011;65308;50.078;14.854;2023-03-25T08:27:49;4.68;;;1.42;;
76475;SDS011;65308;50.078;14.854;2023-03-25T08:30:16;2.90;;;1.35;;
76475;SDS011;65308;50.078;14.854;2023-03-25T08:32:42;3.00;;;1.40;;
76475;SDS011;65308;50.078;14.854;2023-03-25T08:35:10;4.22;;;1.63;;
76475;SDS011;65308;50.078;14.854;2023-03-25T08:37:37;2.83;;;1.30;;
76475;SDS011;65308;50.078;14.854;2023-03-25T08:40:05;2.72;;;1.40;;
76475;SDS011;65308;50.078;14.854;2023-03-25T08:42:34;2.80;;;1.42;;
76475;SDS011;65308;50.078;14.854;2023-03-25T08:45:01;2.63;;;1.50;;
76475;SDS011;65308;50.078;14.854;2023-03-25T08:47:29;3.50;;;1.42;;
76475;SDS011;65308;50.078;14.854;2023-03-25T08:49:55;2.42;;;1.30;;
76475;SDS011;65308;50.078;14.854;2023-03-25T08:52:22;3.20;;;1.40;;
76475;SDS011;65308;50.078;14.854;2023-03-25T08:54:49;3.05;;;1.48;;
76475;SDS011;65308;50.078;14.854;2023-03-25T08:57:16;4.25;;;1.90;;
76475;SDS011;65308;50.078;14.854;2023-03-25T08:59:44;3.63;;;1.60;;
76475;SDS011;65308;50.078;14.854;2023-03-25T09:02:11;3.30;;;1.55;;
76475;SDS011;65308;50.078;14.854;2023-03-25T09:04:38;2.40;;;1.30;;
76475;SDS011;65308;50.078;14.854;2023-03-25T09:07:05;5.13;;;2.15;;
76475;SDS011;65308;50.078;14.854;2023-03-25T09:09:35;3.28;;;1.55;;
76475;SDS011;65308;50.078;14.854;2023-03-25T09:12:02;3.28;;;1.60;;
76475;SDS011;65308;50.078;14.854;2023-03-25T09:14:30;3.50;;;1.50;;
76475;SDS011;65308;50.078;14.854;2023-03-25T09:16:58;1.95;;;1.15;;
76475;SDS011;65308;50.078;14.854;2023-03-25T09:19:25;2.55;;;1.70;;
76475;SDS011;65308;50.078;14.854;2023-03-25T09:21:52;4.93;;;1.63;;
76475;SDS011;65308;50.078;14.854;2023-03-25T09:24:19;3.92;;;1.67;;
76475;SDS011;65308;50.078;14.854;2023-03-25T09:26:46;2.33;;;1.40;;
76475;SDS011;65308;50.078;14.854;2023-03-25T09:29:13;3.10;;;1.30;;
76475;SDS011;65308;50.078;14.854;2023-03-25T09:31:39;3.05;;;1.70;;
76475;SDS011;65308;50.078;14.854;2023-03-25T09:34:07;2.22;;;1.02;;
76475;SDS011;65308;50.078;14.854;2023-03-25T09:36:35;2.33;;;1.25;;
76475;SDS011;65308;50.078;14.854;2023-03-25T09:39:02;2.88;;;1.27;;
76475;SDS011;65308;50.078;14.854;2023-03-25T09:41:34;3.20;;;1.50;;
76475;SDS011;65308;50.078;14.854;2023-03-25T09:44:12;2.95;;;1.38;;
76475;SDS011;65308;50.078;14.854;2023-03-25T09:46:44;2.53;;;1.40;;
76475;SDS011;65308;50.078;14.854;2023-03-25T09:49:13;3.30;;;1.40;;
76475;SDS011;65308;50.078;14.854;2023-03-25T09:51:43;2.88;;;1.50;;
76475;SDS011;65308;50.078;14.854;2023-03-25T09:54:16;1.80;;;1.30;;
76475;SDS011;65308;50.078;14.854;2023-03-25T09:56:48;3.97;;;1.60;;
76475;SDS011;65308;50.078;14.854;2023-03-25T10:01:46;1.98;;;1.38;;
76475;SDS011;65308;50.078;14.854;2023-03-25T10:07:19;2.42;;;1.30;;
76475;SDS011;65308;50.078;14.854;2023-03-25T10:09:53;4.32;;;1.40;;
76475;SDS011;65308;50.078;14.854;2023-03-25T10:12:31;2.60;;;1.38;;
76475;SDS011;65308;50.078;14.854;2023-03-25T10:15:07;2.63;;;1.20;;
76475;SDS011;65308;50.078;14.854;2023-03-25T10:17:42;3.60;;;1.40;;
76475;SDS011;65308;50.078;14.854;2023-03-25T10:20:21;1.92;;;1.30;;
76475;SDS011;65308;50.078;14.854;2023-03-25T10:23:00;3.10;;;1.40;;
76475;SDS011;65308;50.078;14.854;2023-03-25T10:25:33;4.20;;;1.50;;
76475;SDS011;65308;50.078;14.854;2023-03-25T10:28:06;3.40;;;1.58;;
76475;SDS011;65308;50.078;14.854;2023-03-25T10:30:40;3.33;;;1.50;;
76475;SDS011;65308;50.078;14.854;2023-03-25T10:33:13;3.90;;;1.63;;
76475;SDS011;65308;50.078;14.854;2023-03-25T10:35:44;2.30;;;1.40;;
76475;SDS011;65308;50.078;14.854;2023-03-25T10:38:16;3.17;;;1.40;;
76475;SDS011;65308;50.078;14.854;2023-03-25T10:40:45;3.15;;;1.50;;
76475;SDS011;65308;50.078;14.854;2023-03-25T10:43:17;2.92;;;1.60;;
76475;SDS011;65308;50.078;14.854;2023-03-25T10:45:50;4.75;;;1.50;;
76475;SDS011;65308;50.078;14.854;2023-03-25T10:48:20;2.88;;;1.33;;
76475;SDS011;65308;50.078;14.854;2023-03-25T10:50:50;4.57;;;1.50;;
76475;SDS011;65308;50.078;14.854;2023-03-25T10:53:21;2.78;;;1.45;;
76475;SDS011;65308;50.078;14.854;2023-03-25T10:55:55;2.40;;;1.40;;
76475;SDS011;65308;50.078;14.854;2023-03-25T10:58:25;4.13;;;1.85;;
76475;SDS011;65308;50.078;14.854;2023-03-25T11:00:52;2.47;;;1.30;;
76475;SDS011;65308;50.078;14.854;2023-03-25T11:03:21;5.30;;;1.20;;
76475;SDS011;65308;50.078;14.854;2023-03-25T11:05:52;2.75;;;1.30;;
76475;SDS011;65308;50.078;14.854;2023-03-25T11:08:20;3.88;;;1.20;;
76475;SDS011;65308;50.078;14.854;2023-03-25T11:10:51;2.92;;;1.40;;
76475;SDS011;65308;50.078;14.854;2023-03-25T11:13:22;2.45;;;1.20;;
76475;SDS011;65308;50.078;14.854;2023-03-25T11:15:51;4.05;;;1.70;;
76475;SDS011;65308;50.078;14.854;2023-03-25T11:18:21;1.92;;;1.20;;
76475;SDS011;65308;50.078;14.854;2023-03-25T11:20:52;3.33;;;1.50;;
76475;SDS011;65308;50.078;14.854;2023-03-25T11:23:25;4.68;;;1.45;;
76475;SDS011;65308;50.078;14.854;2023-03-25T11:25:55;4.18;;;1.33;;
76475;SDS011;65308;50.078;14.854;2023-03-25T11:28:33;2.60;;;1.50;;
76475;SDS011;65308;50.078;14.854;2023-03-25T11:31:10;1.75;;;1.15;;
76475;SDS011;65308;50.078;14.854;2023-03-25T11:33:39;3.45;;;1.58;;
76475;SDS011;65308;50.078;14.854;2023-03-25T11:36:27;9.75;;;2.17;;
76475;SDS011;65308;50.078;14.854;2023-03-25T11:38:57;2.10;;;1.30;;
76475;SDS011;65308;50.078;14.854;2023-03-25T11:41:29;3.88;;;1.40;;
76475;SDS011;65308;50.078;14.854;2023-03-25T11:43:57;3.55;;;1.13;;
76475;SDS011;65308;50.078;14.854;2023-03-25T11:48:52;2.47;;;1.30;;
76475;SDS011;65308;50.078;14.854;2023-03-25T11:51:20;3.72;;;1.50;;
76475;SDS011;65308;50.078;14.854;2023-03-25T11:54:07;3.42;;;1.45;;
76475;SDS011;65308;50.078;14.854;2023-03-25T11:56:37;3.28;;;1.50;;
76475;SDS011;65308;50.078;14.854;2023-03-25T11:59:09;2.38;;;1.30;;
76475;SDS011;65308;50.078;14.854;2023-03-25T12:01:59;2.10;;;1.30;;
76475;SDS011;65308;50.078;14.854;2023-03-25T12:04:41;2.97;;;1.63;;
76475;SDS011;65308;50.078;14.854;2023-03-25T12:07:28;4.43;;;1.30;;
76475;SDS011;65308;50.078;14.854;2023-03-25T12:10:14;2.63;;;1.30;;
76475;SDS011;65308;50.078;14.854;2023-03-25T12:12:44;3.28;;;1.60;;
76475;SDS011;65308;50.078;14.854;2023-03-25T12:15:20;3.92;;;1.95;;
76475;SDS011;65308;50.078;14.854;2023-03-25T12:17:58;2.30;;;1.23;;
76475;SDS011;65308;50.078;14.854;2023-03-25T12:20:40;3.47;;;1.33;;
76475;SDS011;65308;50.078;14.854;2023-03-25T12:23:34;3.22;;;1.30;;
76475;SDS011;65308;50.078;14.854;2023-03-25T12:26:14;2.33;;;1.30;;
76475;SDS011;65308;50.078;14.854;2023-03-25T12:28:59;3.67;;;1.30;;
76475;SDS011;65308;50.078;14.854;2023-03-25T12:31:37;3.25;;;1.40;;
76475;SDS011;65308;50.078;14.854;2023-03-25T12:34:17;2.72;;;1.35;;
76475;SDS011;65308;50.078;14.854;2023-03-25T12:36:53;5.97;;;1.50;;
76475;SDS011;65308;50.078;14.854;2023-03-25T12:39:33;3.15;;;1.38;;
76475;SDS011;65308;50.078;14.854;2023-03-25T12:42:14;3.17;;;1.20;;
76475;SDS011;65308;50.078;14.854;2023-03-25T12:44:57;3.63;;;1.35;;
76475;SDS011;65308;50.078;14.854;2023-03-25T12:47:34;2.80;;;1.20;;
76475;SDS011;65308;50.078;14.854;2023-03-25T12:50:13;2.53;;;1.42;;
76475;SDS011;65308;50.078;14.854;2023-03-25T12:53:02;2.63;;;1.40;;
76475;SDS011;65308;50.078;14.854;2023-03-25T12:56:01;2.08;;;1.25;;
76475;SDS011;65308;50.078;14.854;2023-03-25T12:58:50;4.00;;;1.50;;
76475;SDS011;65308;50.078;14.854;2023-03-25T13:01:32;2.35;;;1.48;;
76475;SDS011;65308;50.078;14.854;2023-03-25T13:04:08;3.63;;;1.50;;
76475;SDS011;65308;50.078;14.854;2023-03-25T13:09:17;3.88;;;1.40;;
76475;SDS011;65308;50.078;14.854;2023-03-25T13:11:51;3.42;;;1.50;;
76475;SDS011;65308;50.078;14.854;2023-03-25T13:14:23;5.72;;;1.60;;
76475;SDS011;65308;50.078;14.854;2023-03-25T13:16:54;2.63;;;1.17;;
76475;SDS011;65308;50.078;14.854;2023-03-25T13:19:25;2.85;;;1.30;;
76475;SDS011;65308;50.078;14.854;2023-03-25T13:21:59;2.42;;;1.50;;
76475;SDS011;65308;50.078;14.854;2023-03-25T13:24:33;6.00;;;1.80;;
76475;SDS011;65308;50.078;14.854;2023-03-25T13:27:08;6.30;;;2.38;;
76475;SDS011;65308;50.078;14.854;2023-03-25T13:29:41;4.80;;;1.65;;
76475;SDS011;65308;50.078;14.854;2023-03-25T13:32:11;4.43;;;1.70;;
76475;SDS011;65308;50.078;14.854;2023-03-25T13:34:43;3.58;;;1.50;;
76475;SDS011;65308;50.078;14.854;2023-03-25T13:37:15;3.67;;;1.60;;
76475;SDS011;65308;50.078;14.854;2023-03-25T13:40:06;3.65;;;1.90;;
76475;SDS011;65308;50.078;14.854;2023-03-25T13:42:47;7.50;;;1.50;;
76475;SDS011;65308;50.078;14.854;2023-03-25T13:45:24;2.45;;;1.30;;
76475;SDS011;65308;50.078;14.854;2023-03-25T13:47:57;3.80;;;1.40;;
76475;SDS011;65308;50.078;14.854;2023-03-25T13:50:30;2.67;;;1.20;;
76475;SDS011;65308;50.078;14.854;2023-03-25T13:52:59;1.23;;;0.70;;
76475;SDS011;65308;50.078;14.854;2023-03-25T13:55:30;2.83;;;1.35;;
76475;SDS011;65308;50.078;14.854;2023-03-25T13:58:11;2.35;;;1.10;;
76475;SDS011;65308;50.078;14.854;2023-03-25T14:06:53;2.58;;;1.17;;
76475;SDS011;65308;50.078;14.854;2023-03-25T14:09:45;3.88;;;1.23;;
76475;SDS011;65308;50.078;14.854;2023-03-25T14:12:26;2.53;;;1.17;;
76475;SDS011;65308;50.078;14.854;2023-03-25T14:14:56;2.60;;;1.10;;
76475;SDS011;65308;50.078;14.854;2023-03-25T14:17:31;4.45;;;2.03;;
76475;SDS011;65308;50.078;14.854;2023-03-25T14:20:04;4.10;;;2.53;;
76475;SDS011;65308;50.078;14.854;2023-03-25T14:22:35;4.43;;;1.98;;
76475;SDS011;65308;50.078;14.854;2023-03-25T14:25:13;4.07;;;1.95;;
76475;SDS011;65308;50.078;14.854;2023-03-25T14:27:47;5.13;;;2.30;;
76475;SDS011;65308;50.078;14.854;2023-03-25T14:30:18;4.13;;;2.22;;
76475;SDS011;65308;50.078;14.854;2023-03-25T14:32:55;4.50;;;1.70;;
76475;SDS011;65308;50.078;14.854;2023-03-25T14:38:47;4.22;;;2.30;;
76475;SDS011;65308;50.078;14.854;2023-03-25T14:44:22;3.22;;;1.55;;
76475;SDS011;65308;50.078;14.854;2023-03-25T14:46:58;2.78;;;1.45;;
76475;SDS011;65308;50.078;14.854;2023-03-25T14:52:21;3.95;;;1.45;;
76475;SDS011;65308;50.078;14.854;2023-03-25T14:54:58;3.80;;;1.40;;
76475;SDS011;65308;50.078;14.854;2023-03-25T14:57:36;2.95;;;1.45;;
76475;SDS011;65308;50.078;14.854;2023-03-25T15:00:08;4.43;;;1.80;;
76475;SDS011;65308;50.078;14.854;2023-03-25T15:02:48;4.30;;;1.63;;
76475;SDS011;65308;50.078;14.854;2023-03-25T15:05:22;2.85;;;1.83;;
76475;SDS011;65308;50.078;14.854;2023-03-25T15:07:54;3.40;;;1.70;;
76475;SDS011;65308;50.078;14.854;2023-03-25T15:10:31;2.85;;;1.70;;
76475;SDS011;65308;50.078;14.854;2023-03-25T15:13:15;3.13;;;1.40;;
76475;SDS011;65308;50.078;14.854;2023-03-25T15:15:52;5.43;;;1.85;;
76475;SDS011;65308;50.078;14.854;2023-03-25T15:21:31;3.97;;;2.40;;
76475;SDS011;65308;50.078;14.854;2023-03-25T15:24:29;5.20;;;2.05;;
76475;SDS011;65308;50.078;14.854;2023-03-25T15:26:58;3.42;;;1.40;;
76475;SDS011;65308;50.078;14.854;2023-03-25T15:29:36;2.17;;;1.00;;
76475;SDS011;65308;50.078;14.854;2023-03-25T15:32:19;2.70;;;1.25;;
76475;SDS011;65308;50.078;14.854;2023-03-25T15:38:37;2.33;;;1.48;;
76475;SDS011;65308;50.078;14.854;2023-03-25T15:41:18;2.42;;;1.45;;
76475;SDS011;65308;50.078;14.854;2023-03-25T15:44:05;3.15;;;1.70;;
76475;SDS011;65308;50.078;14.854;2023-03-25T15:47:24;1.92;;;1.23;;
76475;SDS011;65308;50.078;14.854;2023-03-25T16:02:42;2.65;;;1.35;;
76475;SDS011;65308;50.078;14.854;2023-03-25T16:07:49;2.25;;;1.50;;
76475;SDS011;65308;50.078;14.854;2023-03-25T16:10:33;2.95;;;1.60;;
76475;SDS011;65308;50.078;14.854;2023-03-25T16:18:16;6.10;;;1.88;;
76475;SDS011;65308;50.078;14.854;2023-03-25T16:20:57;3.38;;;1.65;;
76475;SDS011;65308;50.078;14.854;2023-03-25T16:23:28;2.75;;;1.50;;